Latest Weather Observations for Cabramurra

IDN60801

Issued at 6:23 pm EST Monday 4 July 2022 (issued every 10 minutes, with the page automatically refreshed every 10 minutes)

About weather observations | Map of weather stations | Latest weather observations for NSW | Other Formats
Station Details ID: 072161 Name: CABRAMURRA SMHEA AWS Lat: -35.94 Lon: 148.38 Height: 1482.4 m
Data from the previous 72 hours. | See also: Recent months at Cabramurra
Date/Time
EST
Temp
°C
App
Temp
°C
Dew
Point
°C
Rel
Hum
%
Delta-T
°C
Wind Press
QNH
hPa
Press
MSL
hPa
Rain since
9am
mm
Dir  Spd
km/h
Gust
km/h
Spd
kts
Gust
kts
04/06:00pm 1.5 -11.9 1.4 99 0.0 ESE 61 91 33 49 - - 0.0
04/05:30pm 1.8 -11.1 1.7 99 0.0 ESE 59 82 32 44 - - 0.0
04/05:00pm 1.8 -11.5 1.7 99 0.0 ESE 61 83 33 45 - - 0.0
04/04:30pm 2.0 -9.6 1.9 99 0.0 ESE 52 80 28 43 - - 0.0
04/04:00pm 2.5 -9.0 2.4 99 0.0 ESE 52 76 28 41 - - 0.0
04/03:30pm 2.6 -10.3 1.6 93 0.4 ESE 59 80 32 43 - - 0.0
04/03:00pm 2.7 -11.1 0.8 87 0.8 ESE 63 83 34 45 - - 0.0
04/02:38pm 2.8 -9.9 0.9 87 0.8 ESE 57 76 31 41 - - 0.0
04/02:30pm 2.9 -9.6 1.0 87 0.8 ESE 56 72 30 39 - - 0.0
04/02:00pm 2.9 -10.2 0.5 84 1.0 ESE 59 80 32 43 - - 0.0
04/01:30pm 3.0 -8.8 0.7 85 1.0 ESE 52 74 28 40 - - 0.0
04/01:00pm 2.7 -9.9 0.1 83 1.1 ESE 56 74 30 40 - - 0.0
04/12:30pm 2.6 -10.2 0.2 84 1.0 ESE 57 78 31 42 - - 0.0
04/12:00pm 2.4 -9.3 0.8 89 0.7 ESE 52 76 28 41 - - 0.0
04/11:30am 2.2 -9.5 1.0 92 0.5 ESE 52 70 28 38 - - 0.0
04/11:00am 2.0 -10.6 1.4 96 0.3 SE 57 76 31 41 - - 0.0
04/10:30am 2.3 -11.4 1.9 97 0.2 ESE 63 83 34 45 - - 0.0
04/10:00am 2.0 -12.1 1.4 96 0.3 ESE 65 85 35 46 - - 0.0
04/09:30am 1.4 -12.7 1.3 99 0.0 ESE 65 83 35 45 - - 0.0
04/09:00am 1.1 -12.3 1.0 99 0.0 ESE 61 80 33 43 - - 0.0
04/08:31am 1.0 -14.0 0.9 99 0.0 ESE 69 87 37 47 - - 0.0
04/08:30am 1.0 -14.1 0.9 99 0.0 ESE 70 87 38 47 - - 0.0
04/08:00am 0.9 -13.7 0.5 97 0.2 ESE 67 85 36 46 - - 0.0
04/07:30am 0.8 -14.5 0.1 95 0.3 ESE 70 89 38 48 - - 0.0
04/07:00am 0.4 -15.0 -0.9 91 0.5 ESE 70 93 38 50 - - 0.0
04/06:30am 0.5 -15.7 -1.1 89 0.7 ESE 74 98 40 53 - - 0.0
04/06:00am 0.6 -15.1 0.0 96 0.2 ESE 72 98 39 53 - - 0.0
04/05:30am 0.5 -14.6 -0.1 96 0.2 ESE 69 95 37 51 - - 0.0
04/05:00am 0.3 -15.5 -0.7 93 0.4 ESE 72 93 39 50 - - 0.0
04/04:30am 0.1 -15.0 -0.2 98 0.1 ESE 69 87 37 47 - - 0.0
04/04:00am 0.2 -15.5 -0.6 94 0.3 ESE 72 93 39 50 - - 0.0
04/03:30am 0.2 -15.9 -0.4 96 0.2 ESE 74 100 40 54 - - 0.0
04/03:03am 0.3 -15.0 -0.3 96 0.2 ESE 70 95 38 51 - - 0.0
04/03:00am 0.3 -14.8 -0.1 97 0.2 ESE 69 85 37 46 - - 0.0
04/02:30am 0.5 -15.9 -0.1 96 0.2 ESE 76 102 41 55 - - 0.0
04/02:00am 0.6 -15.5 -0.1 95 0.3 ESE 74 96 40 52 - - 0.0
04/01:30am 0.9 -14.3 0.3 96 0.2 ESE 70 95 38 51 - - 0.0
04/01:00am 0.8 -14.8 0.4 97 0.2 ESE 72 93 39 50 - - 0.0
04/12:30am 0.9 -15.4 0.6 98 0.1 ESE 76 96 41 52 - - 0.0
04/12:00am 0.8 -15.5 0.7 99 0.0 ESE 76 98 41 53 - - 0.0
 
Date/Time
EST
Temp
°C
App
Temp
°C
Dew
Point
°C
Rel
Hum
%
Delta-T
°C
Wind Press
QNH
hPa
Press
MSL
hPa
Rain since
9am
mm
Dir  Spd
km/h
Gust
km/h
Spd
kts
Gust
kts
03/11:30pm 0.9 -15.4 0.8 99 0.0 ESE 76 102 41 55 - - 0.0
03/11:00pm 1.0 -14.9 0.7 98 0.1 ESE 74 96 40 52 - - 0.0
03/10:30pm 1.1 -15.6 0.8 98 0.1 ESE 78 102 42 55 - - 0.0
03/10:00pm 1.1 -14.5 0.2 94 0.4 ESE 72 95 39 51 - - 0.0
03/09:30pm 1.0 -14.0 0.9 99 0.0 ESE 69 89 37 48 - - 0.0
03/09:00pm 1.1 -15.3 0.2 94 0.4 ESE 76 95 41 51 - - 0.0
03/08:30pm 1.4 -14.9 0.7 95 0.3 ESE 76 100 41 54 - - 0.0
03/08:00pm 1.3 -13.6 1.2 99 0.0 ESE 69 91 37 49 - - 0.0
03/07:30pm 1.3 -13.2 1.2 99 0.0 ESE 67 89 36 48 - - 0.0
03/07:03pm 1.3 -12.5 1.2 99 0.0 ESE 63 82 34 44 - - 0.0
03/07:00pm 1.3 -12.9 1.2 99 0.0 ESE 65 82 35 44 - - 0.0
03/06:30pm 1.5 -11.9 1.4 99 0.0 ESE 61 85 33 46 - - 0.0
03/06:00pm 1.9 -11.8 1.8 99 0.0 ESE 63 87 34 47 - - 0.0
03/05:30pm 2.0 -13.4 1.9 99 0.0 ESE 72 96 39 52 - - 0.0
03/05:00pm 2.2 -12.6 2.1 99 0.0 ESE 69 93 37 50 - - 0.0
03/04:30pm 2.6 -11.7 2.5 99 0.0 ESE 67 89 36 48 - - 0.0
03/04:00pm 2.7 -12.2 2.6 99 0.0 ESE 70 96 38 52 - - 0.0
03/03:30pm 2.7 -12.2 2.6 99 0.0 ESE 70 95 38 51 - - 0.0
03/03:00pm 2.8 -10.7 2.7 99 0.0 ESE 63 85 34 46 - - 0.0
03/02:30pm 2.7 -11.2 2.6 99 0.0 ESE 65 83 35 45 - - 0.0
03/02:06pm 2.7 -11.2 2.6 99 0.0 ESE 65 83 35 45 - - 0.0
03/02:00pm 2.9 -11.4 2.8 99 0.0 ESE 67 83 36 45 - - 0.0
03/01:30pm 2.8 -11.1 2.7 99 0.0 ESE 65 85 35 46 - - 0.0
03/01:17pm 2.9 -11.0 2.8 99 0.0 ESE 65 87 35 47 - - 0.0
03/01:00pm 2.6 -11.3 2.5 99 0.0 ESE 65 82 35 44 - - 0.0
03/12:30pm 2.5 -11.5 2.4 99 0.0 ESE 65 89 35 48 - - 0.0
03/12:00pm 2.4 -12.5 2.3 99 0.0 ESE 70 89 38 48 - - 0.0
03/11:35am 2.4 -12.0 2.3 99 0.0 ESE 67 85 36 46 - - 0.0
03/11:30am 2.2 -12.8 2.1 99 0.0 ESE 70 85 38 46 - - 0.0
03/11:00am 1.8 -12.6 1.7 99 0.0 ESE 67 87 36 47 - - 0.0
03/10:30am 1.7 -13.1 1.6 99 0.0 ESE 69 87 37 47 - - 0.0
03/10:01am 1.3 -13.2 1.2 99 0.0 ESE 67 85 36 46 - - 0.0
03/10:00am 1.3 -13.6 1.2 99 0.0 ESE 69 85 37 46 - - 0.0
03/09:30am 1.2 -13.3 1.1 99 0.0 ESE 67 85 36 46 - - 0.0
03/09:04am 1.2 -14.3 1.1 99 0.0 ESE 72 91 39 49 - - 0.0
03/09:00am 1.1 -14.8 1.0 99 0.0 ESE 74 91 40 49 - - 0.0
03/08:30am 0.8 -14.2 0.8 100 0.0 ESE 69 95 37 51 - - 0.0
03/08:00am 1.0 -13.9 1.0 100 0.0 ESE 69 91 37 49 - - 0.0
03/07:30am 1.1 -14.8 1.1 100 0.0 ESE 74 93 40 50 - - 0.0
03/07:24am 0.9 -15.0 0.9 100 0.0 ESE 74 93 40 50 - - 0.0
03/07:00am 1.0 -14.5 1.0 100 0.0 ESE 72 89 39 48 - - 0.0
03/06:30am 1.0 -14.5 1.0 100 0.0 ESE 72 85 39 46 - - 0.0
03/06:00am 1.0 -13.6 1.0 100 0.0 ESE 67 87 36 47 - - 0.0
03/05:32am 0.8 -14.2 0.8 100 0.0 ESE 69 87 37 47 - - 0.0
03/05:30am 0.7 -14.5 0.7 100 0.0 ESE 70 87 38 47 - - 0.0
03/05:10am 0.7 -14.3 0.7 100 0.0 ESE 69 87 37 47 - - 0.0
03/05:00am 0.7 -14.5 0.7 100 0.0 ESE 70 87 38 47 - - 0.0
03/04:33am 0.9 -14.2 0.9 100 0.0 ESE 70 89 38 48 - - 0.0
03/04:30am 0.9 -14.6 0.9 100 0.0 ESE 72 89 39 48 - - 0.0
03/04:00am 1.0 -14.9 1.0 100 0.0 ESE 74 96 40 52 - - 0.0
03/03:31am 1.3 -14.2 1.3 100 0.0 ESE 72 91 39 49 - - 0.0
03/03:30am 1.0 -14.1 1.0 100 0.0 ESE 70 87 38 47 - - 0.0
03/03:01am 1.1 -14.0 1.0 99 0.0 ESE 70 89 38 48 - - 0.0
03/03:00am 1.2 -14.3 1.1 99 0.0 ESE 72 89 39 48 - - 0.0
03/02:31am 1.4 -14.1 1.3 99 0.0 ESE 72 91 39 49 - - 0.0
03/02:30am 1.2 -14.3 1.1 99 0.0 ESE 72 89 39 48 - - 0.0
03/02:00am 1.1 -14.4 1.0 99 0.0 ESE 72 91 39 49 - - 0.0
03/01:38am 1.1 -14.8 1.0 99 0.0 ESE 74 93 40 50 - - 0.0
03/01:30am 1.0 -15.3 1.0 100 0.0 ESE 76 89 41 48 - - 0.0
03/01:00am 1.0 -14.5 1.0 100 0.0 ESE 72 95 39 51 - - 0.0
03/12:30am 1.0 -14.9 1.0 100 0.0 ESE 74 93 40 50 - - 0.0
03/12:00am 0.8 -15.1 0.8 100 0.0 ESE 74 93 40 50 - - 0.0
 
Date/Time
EST
Temp
°C
App
Temp
°C
Dew
Point
°C
Rel
Hum
%
Delta-T
°C
Wind Press
QNH
hPa
Press
MSL
hPa
Rain since
9am
mm
Dir  Spd
km/h
Gust
km/h
Spd
kts
Gust
kts
02/11:30pm 1.0 -14.5 0.9 99 0.0 ESE 72 95 39 51 - - 0.0
02/11:00pm 0.9 -16.2 0.8 99 0.0 ESE 80 98 43 53 - - 0.0
02/10:39pm 0.9 -15.8 0.8 99 0.0 ESE 78 98 42 53 - - 0.0
02/10:30pm 0.9 -15.4 0.8 99 0.0 ESE 76 93 41 50 - - 0.0
02/10:00pm 0.9 -15.0 0.8 99 0.0 ESE 74 95 40 51 - - 0.0
02/09:30pm 1.0 -14.5 0.9 99 0.0 ESE 72 93 39 50 - - 0.0
02/09:00pm 1.1 -14.4 1.0 99 0.0 ESE 72 95 39 51 - - 0.0
02/08:32pm 1.2 -13.7 1.1 99 0.0 ESE 69 87 37 47 - - 0.0
02/08:30pm 1.2 -13.9 1.1 99 0.0 ESE 70 87 38 47 - - 0.0
02/08:00pm 1.3 -12.9 1.2 99 0.0 ESE 65 85 35 46 - - 0.0
02/07:30pm 1.3 -12.9 1.2 99 0.0 ESE 65 89 35 48 - - 0.0
02/07:00pm 1.6 -13.5 1.5 99 0.0 ESE 70 93 38 50 - - 0.0
02/06:36pm 1.5 -13.4 1.4 99 0.0 ESE 69 87 37 47 - - 0.0
02/06:30pm 1.6 -13.3 1.5 99 0.0 ESE 69 85 37 46 - - 0.0
02/06:05pm 1.7 -12.4 1.6 99 0.0 ESE 65 87 35 47 - - 0.0
02/06:00pm 1.6 -12.1 1.5 99 0.0 ESE 63 80 34 43 - - 0.0
02/05:41pm 1.6 -11.7 1.5 99 0.0 ESE 61 80 33 43 - - 0.0
02/05:30pm 1.8 -12.3 1.7 99 0.0 ESE 65 82 35 44 - - 0.0
02/05:00pm 1.9 -11.0 1.8 99 0.0 ESE 59 78 32 42 - - 0.0
02/04:30pm 2.2 -10.1 2.1 99 0.0 ESE 56 76 30 41 - - 0.0
02/04:00pm 2.2 -9.7 2.1 99 0.0 ESE 54 72 29 39 - - 0.0
02/03:39pm 2.3 -9.2 2.2 99 0.0 ESE 52 70 28 38 - - 0.0
02/03:30pm 2.3 -10.0 2.2 99 0.0 ESE 56 70 30 38 - - 0.0
02/03:00pm 2.2 -11.8 2.1 99 0.0 ESE 65 87 35 47 - - 0.0
02/02:30pm 2.3 -10.9 2.2 99 0.0 ESE 61 80 33 43 - - 0.0
02/02:00pm 2.3 -9.2 2.2 99 0.0 ESE 52 72 28 39 - - 0.0
02/01:30pm 2.1 -8.7 2.0 99 0.0 ESE 48 67 26 36 - - 0.0
02/01:01pm 2.5 -9.4 1.9 96 0.3 ESE 54 74 29 40 - - 0.0
02/01:00pm 2.5 -9.4 2.1 97 0.2 ESE 54 70 29 38 - - 0.0
02/12:30pm 2.7 -9.3 1.8 94 0.4 ESE 54 74 29 40 - - 0.0
02/12:01pm 2.2 -10.1 2.1 99 0.0 ESE 56 74 30 40 - - 0.0
02/12:00pm 2.1 -10.4 2.0 99 0.0 ESE 57 74 31 40 - - 0.0
02/11:30am 1.8 -12.3 1.7 99 0.0 ESE 65 83 35 45 - - 0.0
02/11:00am 1.5 -11.9 1.4 99 0.0 ESE 61 80 33 43 - - 0.0
02/10:30am 1.3 -13.2 1.2 99 0.0 ESE 67 85 36 46 - - 0.0
02/10:22am 1.2 -13.3 1.1 99 0.0 ESE 67 85 36 46 - - 0.0
02/10:00am 0.9 -13.7 0.8 99 0.0 ESE 67 80 36 43 - - 0.0
02/09:30am 0.8 -13.4 0.7 99 0.0 ESE 65 82 35 44 - - 0.0
02/09:00am 0.5 -13.0 0.5 100 0.0 ESE 61 74 33 40 - - 0.0
02/08:35am 0.3 -12.5 0.3 100 0.0 ESE 57 76 31 41 - - 0.0
02/08:30am 0.3 -12.8 0.3 100 0.0 ESE 59 76 32 41 - - 0.0
02/08:00am 0.5 -13.0 0.4 99 0.0 ESE 61 74 33 40 - - 0.0
02/07:30am 0.2 -12.4 0.2 100 0.0 ESE 56 72 30 39 - - 0.0
02/07:00am 0.2 -12.6 0.1 99 0.0 ESE 57 69 31 37 - - 0.0
02/06:30am 0.5 -11.7 0.4 99 0.0 ESE 54 69 29 37 - - 0.0
02/06:00am 0.5 -12.3 0.4 99 0.0 ESE 57 72 31 39 - - 0.0
02/05:30am 0.7 -12.0 0.6 99 0.0 ESE 57 74 31 40 - - 0.0
02/05:06am 0.5 -12.1 0.4 99 0.0 ESE 56 74 30 40 - - 0.0
02/05:00am 0.5 -12.3 0.4 99 0.0 ESE 57 74 31 40 - - 0.0
02/04:30am 0.4 -13.5 0.3 99 0.0 ESE 63 82 34 44 - - 0.0
02/04:01am 0.3 -14.8 0.2 99 0.0 ESE 69 87 37 47 - - 0.0
02/04:00am 0.3 -15.0 0.2 99 0.0 ESE 70 85 38 46 - - 0.0
02/03:30am 0.2 -15.1 0.1 99 0.0 ESE 70 87 38 47 - - 0.0
02/03:02am 0.3 -14.8 0.2 99 0.0 ESE 69 87 37 47 - - 0.0
02/03:00am 0.2 -15.1 0.1 99 0.0 ESE 70 87 38 47 - - 0.0
02/02:30am 0.0 -14.7 -0.1 99 0.0 ESE 67 85 36 46 - - 0.0
02/02:05am 0.2 -14.5 0.1 99 0.0 ESE 67 85 36 46 - - 0.0
02/02:00am 0.1 -14.2 0.0 99 0.0 ESE 65 80 35 43 - - 0.0
02/01:30am -0.1 -14.5 -0.2 99 0.0 ESE 65 80 35 43 - - 0.0
02/01:12am -0.2 -14.2 -0.3 99 0.0 ESE 63 82 34 44 - - 0.0
02/01:00am -0.1 -14.8 -0.2 99 0.0 ESE 67 83 36 45 - - 0.0
02/12:56am -0.1 -14.5 -0.2 99 0.0 ESE 65 83 35 45 - - 0.0
02/12:30am -0.3 -15.1 -0.4 99 0.0 ESE 67 82 36 44 - - 0.0
02/12:00am -0.3 -14.7 -0.4 99 0.0 ESE 65 76 35 41 - - 0.0
 
Date/Time
EST
Temp
°C
App
Temp
°C
Dew
Point
°C
Rel
Hum
%
Delta-T
°C
Wind Press
QNH
hPa
Press
MSL
hPa
Rain since
9am
mm
Dir  Spd
km/h
Gust
km/h
Spd
kts
Gust
kts
01/11:40pm -0.1 -13.3 -0.2 99 0.0 ESE 59 78 32 42 - - 0.0
01/11:30pm 0.1 -13.5 0.0 99 0.0 ESE 61 76 33 41 - - 0.0
01/11:00pm 0.1 -13.1 0.0 99 0.0 ESE 59 72 32 39 - - 0.0
01/10:46pm 0.2 -12.0 0.1 99 0.0 ESE 54 72 29 39 - - 0.0
01/10:30pm 0.1 -11.4 0.0 99 0.0 ESE 50 65 27 35 - - 0.0
01/10:00pm 0.0 -11.5 -0.1 99 0.0 ESE 50 63 27 34 - - 0.0
01/09:47pm 0.0 -11.5 -0.1 99 0.0 ESE 50 70 27 38 - - 0.0
01/09:30pm -0.1 -11.2 -0.2 99 0.0 ESE 48 63 26 34 - - 0.0
01/09:00pm -0.2 -11.7 -0.3 99 0.0 ESE 50 65 27 35 - - 0.0
01/08:42pm 0.0 -11.9 -0.1 99 0.0 ESE 52 70 28 38 - - 0.0
01/08:30pm 0.0 -11.9 -0.1 99 0.0 ESE 52 67 28 36 - - 0.0
01/08:00pm 0.2 -11.6 0.1 99 0.0 ESE 52 70 28 38 - - 0.0
01/07:50pm 0.1 -11.4 0.0 99 0.0 ESE 50 69 27 37 - - 0.0
01/07:30pm 0.2 -12.0 0.1 99 0.0 ESE 54 67 29 36 - - 0.0
01/07:00pm 0.2 -11.3 0.1 99 0.0 ESE 50 72 27 39 - - 0.0
01/06:32pm 0.2 -9.9 0.2 100 0.0 ESE 43 63 23 34 - - 0.0
01/06:30pm 0.2 -9.9 0.2 100 0.0 ESE 43 57 23 31 - - 0.0

Other formats

Comma delimited format used in spreadsheet applications
http://www.bom.gov.au/fwo/IDN60801/IDN60801.95916.axf

JavaScript Object Notation format (JSON) in row-major order
http://www.bom.gov.au/fwo/IDN60801/IDN60801.95916.json

Data quality

Most of these data are generated automatically and are frequently updated. Quality checks on data are not normally performed. It is possible for incorrect values to appear. Refer to information at About Latest Weather Observations and please check the disclaimer before using these data.